• Join FlightAware (Why Join?)
  • Login
  • US Flag 
02:57AM EDT


 

Airport Tracker/Info


-or-


 

Live Flight TrackerFlight Track Log ✈ AWE2690 ✈ 06-Dec-2013 ✈ KMYR - KCLT

Flight Track Log - Related Links

Times and Time Zones

All times are in EST time to prevent confusion due to time zone crossing. See the AWE2690 flight status page for this flight to view local times or setup timezone preferences in your user account.

Time Position Orientation Groundspeed Altitude Reporting Facility
EST Latitude Longitude Course Direction KTS MPH feet Rate Location/Type
11:50AM 33.6083 -78.9675 312° West 257 296 4,900  Level Jacksonville Center
11:51AM 33.8122 -79.0983 313° West  Level Estimated
11:51AM 33.6606 -79.0300 315° West 263 303 8,200  Level Jacksonville Center
11:52AM 33.8554 -79.1562 312° West  Level FlightAware Approximate
11:52AM 33.7186 -79.0922 318° Northwest 264 304 11,400  Level Jacksonville Center
11:53AM 33.8995 -79.2130 313° West  Level Estimated
11:53AM 33.7878 -79.1669 318° Northwest 293 337 13,000  Level Jacksonville Center
11:54AM 33.9431 -79.2703 313° West  Level FlightAware Approximate
11:54AM 33.8569 -79.2564 313° West 338 389 15,100  Level Jacksonville Center
11:55AM 33.9867 -79.3278 312° West  Level FlightAware Approximate
11:55AM 33.9350 -79.3533 314° West 376 433 16,600  Level Jacksonville Center
11:56AM 34.0233 -79.4550 316° Northwest 397 457 17,800 1,140 Climbing Jacksonville Center
11:57AM 34.0947 -79.5500 312° West 417 480 18,900 1,020 Climbing Jacksonville Center
11:58AM 34.1744 -79.6522 313° West 412 474 19,900 420 Climbing Jacksonville Center
11:59AM 34.2564 -79.7547 314° West 412 474 19,800 -900 Descending Jacksonville Center
12:00PM 34.3342 -79.8600 312° West 417 480 18,100 -1,740 Descending Jacksonville Center
12:01PM 34.4117 -79.9606 313° West 412 474 16,400 -1,800 Descending Jacksonville Center
12:02PM 34.4889 -80.0611 313° West 412 474 14,500 -1,980 Descending Jacksonville Center
12:03PM 34.5639 -80.1519 315° West 402 463 12,500 -1,500 Descending Jacksonville Center
12:04PM 34.6569 -80.2789 312° West 291 335 10,900 -660 Descending Atlanta Center
12:05PM 34.7156 -80.3544 313° West 272 313 11,000  Climbing Atlanta Center
12:06PM 34.7592 -80.4158 311° West 285 328 11,000 -60 Level Atlanta Center
12:07PM 34.8242 -80.4939 315° West 281 323 10,900 -540 Descending Atlanta Center
12:08PM 34.8742 -80.5600 313° West 282 325 10,000 -420 Descending Atlanta Center
12:10PM 34.9431 -80.6433 315° West 289 333 10,000  Level Atlanta Center
12:11PM 34.9972 -80.7097 315° West 275 316 10,000  Level Atlanta Center
12:12PM 35.0447 -80.7711 313° West 270 311 10,000 -240 Level Atlanta Center
12:13PM 35.1067 -80.8322 321° Northwest 291 335 9,600 -660 Descending Atlanta Center
12:14PM 35.1906 -80.8417 355° North 309 356 8,700 -1,260 Descending Atlanta Center
12:14PM 35.2658 -80.8464 357° North 291 335 7,200 -1,380 Descending Atlanta Center
12:16PM 35.3597 -80.8503 358° North 293 337 6,000 -600 Descending Atlanta Center
12:16PM 35.4347 -80.8500 360° North 294 338 6,000  Level Atlanta Center
12:17PM 35.5058 -80.8497 360° North 240 276 6,000 -240 Level Atlanta Center
12:19PM 35.5683 -80.8475 North 211 243 5,600 -540 Descending Atlanta Center
12:19PM 35.6125 -80.8611 346° North 187 215 5,000 -300 Descending Atlanta Center
12:21PM 35.5867 -80.9106 237° Southwest 132 152 5,000  Level Atlanta Center
12:22PM 35.5586 -80.9550 232° Southwest 144 166 5,000 -60 Level Atlanta Center
12:23PM 35.5319 -80.9814 219° Southwest 154 177 4,900 -480 Descending Atlanta Center
12:24PM 35.4903 -80.9806 179° South 169 194 4,100 -480 Descending Atlanta Center
12:24PM 35.4503 -80.9667 164° South 161 185 4,000 -60 Descending Atlanta Center
12:25PM 35.4128 -80.9706 185° South 160 184 4,000 -300 Level Atlanta Center
12:27PM 35.3628 -80.9700 179° South 159 183 3,400 -720 Descending Atlanta Center
12:28PM 35.3208 -80.9639 173° South 137 158 2,500 -720 Descending Atlanta Center
12:29PM 35.2875 -80.9625 178° South 113 130 2,000 -600 Descending Atlanta Center
12:30PM 35.2539 -80.9586 175° South 122 140 1,300 -720 Descending Atlanta Center